sensor_id;sensor_type;location;lat;lon;timestamp;temperature;humidity
55064;DHT22;40963;52.168;21.296;2022-12-07T00:01:17;1.80;99.90
55064;DHT22;40963;52.168;21.296;2022-12-07T00:03:44;1.80;99.90
55064;DHT22;40963;52.168;21.296;2022-12-07T00:06:12;1.80;99.90
55064;DHT22;40963;52.168;21.296;2022-12-07T00:08:38;1.80;99.90
55064;DHT22;40963;52.168;21.296;2022-12-07T00:11:07;1.80;99.90
55064;DHT22;40963;52.168;21.296;2022-12-07T00:13:34;1.80;99.90
55064;DHT22;40963;52.168;21.296;2022-12-07T00:16:05;1.80;99.90
55064;DHT22;40963;52.168;21.296;2022-12-07T00:18:32;1.80;99.90
55064;DHT22;40963;52.168;21.296;2022-12-07T00:21:05;1.80;99.90
55064;DHT22;40963;52.168;21.296;2022-12-07T00:23:32;1.80;99.90
55064;DHT22;40963;52.168;21.296;2022-12-07T00:26:12;1.80;99.90
55064;DHT22;40963;52.168;21.296;2022-12-07T00:28:38;1.80;99.90
55064;DHT22;40963;52.168;21.296;2022-12-07T00:31:08;1.70;99.90
55064;DHT22;40963;52.168;21.296;2022-12-07T00:33:35;1.70;99.90
55064;DHT22;40963;52.168;21.296;2022-12-07T00:36:03;1.70;99.90
55064;DHT22;40963;52.168;21.296;2022-12-07T00:38:31;1.70;99.90
55064;DHT22;40963;52.168;21.296;2022-12-07T00:41:02;1.70;99.90
55064;DHT22;40963;52.168;21.296;2022-12-07T00:43:28;1.70;99.90
55064;DHT22;40963;52.168;21.296;2022-12-07T00:45:54;1.70;99.90
55064;DHT22;40963;52.168;21.296;2022-12-07T00:48:21;1.70;99.90
55064;DHT22;40963;52.168;21.296;2022-12-07T00:50:47;1.80;99.90
55064;DHT22;40963;52.168;21.296;2022-12-07T00:53:13;1.80;99.90
55064;DHT22;40963;52.168;21.296;2022-12-07T00:55:39;1.80;99.90
55064;DHT22;40963;52.168;21.296;2022-12-07T00:58:05;1.80;99.90
55064;DHT22;40963;52.168;21.296;2022-12-07T01:00:31;1.90;99.90
55064;DHT22;40963;52.168;21.296;2022-12-07T01:02:56;1.90;99.90
55064;DHT22;40963;52.168;21.296;2022-12-07T01:05:22;1.90;99.90
55064;DHT22;40963;52.168;21.296;2022-12-07T01:07:48;1.90;99.90
55064;DHT22;40963;52.168;21.296;2022-12-07T01:10:14;1.90;99.90
55064;DHT22;40963;52.168;21.296;2022-12-07T01:12:40;1.90;99.90
55064;DHT22;40963;52.168;21.296;2022-12-07T01:15:06;1.90;99.90
55064;DHT22;40963;52.168;21.296;2022-12-07T01:17:32;1.90;99.90
55064;DHT22;40963;52.168;21.296;2022-12-07T01:19:58;1.90;99.90
55064;DHT22;40963;52.168;21.296;2022-12-07T01:22:23;1.90;99.90
55064;DHT22;40963;52.168;21.296;2022-12-07T01:24:49;1.90;99.90
55064;DHT22;40963;52.168;21.296;2022-12-07T01:27:15;1.90;99.90
55064;DHT22;40963;52.168;21.296;2022-12-07T01:29:41;1.90;99.90
55064;DHT22;40963;52.168;21.296;2022-12-07T01:32:06;1.90;99.90
55064;DHT22;40963;52.168;21.296;2022-12-07T01:34:32;1.90;99.90
55064;DHT22;40963;52.168;21.296;2022-12-07T01:36:58;1.90;99.90
55064;DHT22;40963;52.168;21.296;2022-12-07T01:39:24;1.90;99.90
55064;DHT22;40963;52.168;21.296;2022-12-07T01:41:50;1.90;99.90
55064;DHT22;40963;52.168;21.296;2022-12-07T01:44:26;1.90;99.90
55064;DHT22;40963;52.168;21.296;2022-12-07T01:47:12;1.90;99.90
55064;DHT22;40963;52.168;21.296;2022-12-07T01:49:43;1.90;99.90
55064;DHT22;40963;52.168;21.296;2022-12-07T01:52:24;1.90;99.90
55064;DHT22;40963;52.168;21.296;2022-12-07T01:54:57;1.90;99.90
55064;DHT22;40963;52.168;21.296;2022-12-07T01:57:25;1.90;99.90
55064;DHT22;40963;52.168;21.296;2022-12-07T01:59:51;1.90;99.90
55064;DHT22;40963;52.168;21.296;2022-12-07T02:02:21;1.90;99.90
55064;DHT22;40963;52.168;21.296;2022-12-07T02:04:49;2.00;99.90
55064;DHT22;40963;52.168;21.296;2022-12-07T02:07:16;2.00;99.90
55064;DHT22;40963;52.168;21.296;2022-12-07T02:09:42;2.00;99.90
55064;DHT22;40963;52.168;21.296;2022-12-07T02:12:07;2.00;99.90
55064;DHT22;40963;52.168;21.296;2022-12-07T02:14:33;2.00;99.90
55064;DHT22;40963;52.168;21.296;2022-12-07T02:17:25;2.10;99.90
55064;DHT22;40963;52.168;21.296;2022-12-07T02:25:24;2.10;99.90
55064;DHT22;40963;52.168;21.296;2022-12-07T02:28:01;2.10;99.90
55064;DHT22;40963;52.168;21.296;2022-12-07T02:30:33;2.20;99.90
55064;DHT22;40963;52.168;21.296;2022-12-07T02:33:21;2.20;99.90
55064;DHT22;40963;52.168;21.296;2022-12-07T02:36:10;2.20;99.90
55064;DHT22;40963;52.168;21.296;2022-12-07T02:38:50;2.20;99.90
55064;DHT22;40963;52.168;21.296;2022-12-07T02:41:29;2.20;99.90
55064;DHT22;40963;52.168;21.296;2022-12-07T02:43:58;2.20;99.90
55064;DHT22;40963;52.168;21.296;2022-12-07T02:46:37;2.30;99.90
55064;DHT22;40963;52.168;21.296;2022-12-07T02:49:03;2.30;99.90
55064;DHT22;40963;52.168;21.296;2022-12-07T02:51:33;2.30;99.90
55064;DHT22;40963;52.168;21.296;2022-12-07T02:53:59;2.30;99.90
55064;DHT22;40963;52.168;21.296;2022-12-07T02:59:07;2.30;99.90
55064;DHT22;40963;52.168;21.296;2022-12-07T03:06:56;2.30;99.90
55064;DHT22;40963;52.168;21.296;2022-12-07T03:09:37;2.30;99.90
55064;DHT22;40963;52.168;21.296;2022-12-07T03:12:12;2.30;99.90
55064;DHT22;40963;52.168;21.296;2022-12-07T03:14:45;2.30;99.90
55064;DHT22;40963;52.168;21.296;2022-12-07T03:17:19;2.30;99.90
55064;DHT22;40963;52.168;21.296;2022-12-07T03:19:46;2.30;99.90
55064;DHT22;40963;52.168;21.296;2022-12-07T03:22:15;2.30;99.90
55064;DHT22;40963;52.168;21.296;2022-12-07T03:25:00;2.30;99.90
55064;DHT22;40963;52.168;21.296;2022-12-07T03:27:32;2.30;99.90
55064;DHT22;40963;52.168;21.296;2022-12-07T03:30:02;2.30;99.90
55064;DHT22;40963;52.168;21.296;2022-12-07T03:35:05;2.30;99.90
55064;DHT22;40963;52.168;21.296;2022-12-07T03:37:40;2.30;99.90
55064;DHT22;40963;52.168;21.296;2022-12-07T03:40:40;2.30;99.90
55064;DHT22;40963;52.168;21.296;2022-12-07T03:43:06;2.40;99.90
55064;DHT22;40963;52.168;21.296;2022-12-07T03:45:44;2.30;99.90
55064;DHT22;40963;52.168;21.296;2022-12-07T03:50:49;2.40;99.90
55064;DHT22;40963;52.168;21.296;2022-12-07T03:53:24;2.40;99.90
55064;DHT22;40963;52.168;21.296;2022-12-07T03:55:52;2.40;99.90
55064;DHT22;40963;52.168;21.296;2022-12-07T03:58:21;2.40;99.90
55064;DHT22;40963;52.168;21.296;2022-12-07T04:00:49;2.30;99.90
55064;DHT22;40963;52.168;21.296;2022-12-07T04:03:15;2.40;99.90
55064;DHT22;40963;52.168;21.296;2022-12-07T04:05:41;2.30;99.90
55064;DHT22;40963;52.168;21.296;2022-12-07T04:08:07;2.30;99.90
55064;DHT22;40963;52.168;21.296;2022-12-07T04:10:33;2.30;99.90
55064;DHT22;40963;52.168;21.296;2022-12-07T04:12:59;2.40;99.90
55064;DHT22;40963;52.168;21.296;2022-12-07T04:15:24;2.40;99.90
55064;DHT22;40963;52.168;21.296;2022-12-07T04:17:50;2.40;99.90
55064;DHT22;40963;52.168;21.296;2022-12-07T04:20:16;2.40;99.90
55064;DHT22;40963;52.168;21.296;2022-12-07T04:22:42;2.30;99.90
55064;DHT22;40963;52.168;21.296;2022-12-07T04:25:08;2.30;99.90
55064;DHT22;40963;52.168;21.296;2022-12-07T04:27:33;2.30;99.90
55064;DHT22;40963;52.168;21.296;2022-12-07T04:29:59;2.30;99.90
55064;DHT22;40963;52.168;21.296;2022-12-07T04:32:25;2.30;99.90
55064;DHT22;40963;52.168;21.296;2022-12-07T04:34:51;2.20;99.90
55064;DHT22;40963;52.168;21.296;2022-12-07T04:37:16;2.20;99.90
55064;DHT22;40963;52.168;21.296;2022-12-07T04:39:43;2.20;99.90
55064;DHT22;40963;52.168;21.296;2022-12-07T04:42:10;2.20;99.90
55064;DHT22;40963;52.168;21.296;2022-12-07T04:44:36;2.20;99.90
55064;DHT22;40963;52.168;21.296;2022-12-07T04:47:02;2.20;99.90
55064;DHT22;40963;52.168;21.296;2022-12-07T04:49:28;2.20;99.90
55064;DHT22;40963;52.168;21.296;2022-12-07T04:51:54;2.10;99.90
55064;DHT22;40963;52.168;21.296;2022-12-07T04:54:19;2.10;99.90
55064;DHT22;40963;52.168;21.296;2022-12-07T04:56:45;2.10;99.90
55064;DHT22;40963;52.168;21.296;2022-12-07T04:59:12;2.00;99.90
55064;DHT22;40963;52.168;21.296;2022-12-07T05:01:38;2.00;99.90
55064;DHT22;40963;52.168;21.296;2022-12-07T05:04:04;2.00;99.90
55064;DHT22;40963;52.168;21.296;2022-12-07T05:06:30;2.00;99.90
55064;DHT22;40963;52.168;21.296;2022-12-07T05:08:56;1.90;99.90
55064;DHT22;40963;52.168;21.296;2022-12-07T05:11:22;1.90;99.90
55064;DHT22;40963;52.168;21.296;2022-12-07T05:14:06;1.90;99.90
55064;DHT22;40963;52.168;21.296;2022-12-07T05:16:32;1.80;99.90
55064;DHT22;40963;52.168;21.296;2022-12-07T05:18:58;1.80;99.90
55064;DHT22;40963;52.168;21.296;2022-12-07T05:21:24;1.80;99.90
55064;DHT22;40963;52.168;21.296;2022-12-07T05:23:50;1.80;99.90
55064;DHT22;40963;52.168;21.296;2022-12-07T05:26:16;1.80;99.90
55064;DHT22;40963;52.168;21.296;2022-12-07T05:28:41;1.80;99.90
55064;DHT22;40963;52.168;21.296;2022-12-07T05:31:07;1.70;99.90
55064;DHT22;40963;52.168;21.296;2022-12-07T05:33:33;1.70;99.90
55064;DHT22;40963;52.168;21.296;2022-12-07T05:35:58;1.70;99.90
55064;DHT22;40963;52.168;21.296;2022-12-07T05:38:24;1.70;99.90
55064;DHT22;40963;52.168;21.296;2022-12-07T05:40:53;1.70;99.90
55064;DHT22;40963;52.168;21.296;2022-12-07T05:43:18;1.70;99.90
55064;DHT22;40963;52.168;21.296;2022-12-07T05:45:44;1.60;99.90
55064;DHT22;40963;52.168;21.296;2022-12-07T05:48:10;1.60;99.90
55064;DHT22;40963;52.168;21.296;2022-12-07T05:50:35;1.60;99.90
55064;DHT22;40963;52.168;21.296;2022-12-07T05:53:01;1.60;99.90
55064;DHT22;40963;52.168;21.296;2022-12-07T05:55:27;1.60;99.90
55064;DHT22;40963;52.168;21.296;2022-12-07T05:57:52;1.60;99.90
55064;DHT22;40963;52.168;21.296;2022-12-07T06:00:37;1.60;99.90
55064;DHT22;40963;52.168;21.296;2022-12-07T06:03:02;1.50;99.90
55064;DHT22;40963;52.168;21.296;2022-12-07T06:05:28;1.50;99.90
55064;DHT22;40963;52.168;21.296;2022-12-07T06:07:54;1.50;99.90
55064;DHT22;40963;52.168;21.296;2022-12-07T06:10:19;1.50;99.90
55064;DHT22;40963;52.168;21.296;2022-12-07T06:12:45;1.50;99.90
55064;DHT22;40963;52.168;21.296;2022-12-07T06:15:11;1.40;99.90
55064;DHT22;40963;52.168;21.296;2022-12-07T06:17:38;1.50;99.90
55064;DHT22;40963;52.168;21.296;2022-12-07T06:20:05;1.40;99.90
55064;DHT22;40963;52.168;21.296;2022-12-07T06:22:31;1.40;99.90
55064;DHT22;40963;52.168;21.296;2022-12-07T06:24:57;1.40;99.90
55064;DHT22;40963;52.168;21.296;2022-12-07T06:27:22;1.40;99.90
55064;DHT22;40963;52.168;21.296;2022-12-07T06:29:48;1.40;99.90
55064;DHT22;40963;52.168;21.296;2022-12-07T06:32:13;1.30;99.90
55064;DHT22;40963;52.168;21.296;2022-12-07T06:34:39;1.30;99.90
55064;DHT22;40963;52.168;21.296;2022-12-07T06:37:05;1.30;99.90
55064;DHT22;40963;52.168;21.296;2022-12-07T06:39:31;1.30;99.90
55064;DHT22;40963;52.168;21.296;2022-12-07T06:41:57;1.30;99.90
55064;DHT22;40963;52.168;21.296;2022-12-07T06:44:23;1.30;99.90
55064;DHT22;40963;52.168;21.296;2022-12-07T06:46:50;1.30;99.90
55064;DHT22;40963;52.168;21.296;2022-12-07T06:49:16;1.30;99.90
55064;DHT22;40963;52.168;21.296;2022-12-07T06:51:43;1.30;99.90
55064;DHT22;40963;52.168;21.296;2022-12-07T06:54:10;1.30;99.90
55064;DHT22;40963;52.168;21.296;2022-12-07T06:56:36;1.30;99.90
55064;DHT22;40963;52.168;21.296;2022-12-07T06:59:03;1.30;99.90
55064;DHT22;40963;52.168;21.296;2022-12-07T07:01:29;1.30;99.90
55064;DHT22;40963;52.168;21.296;2022-12-07T07:03:54;1.30;99.90
55064;DHT22;40963;52.168;21.296;2022-12-07T07:06:20;1.30;99.90
55064;DHT22;40963;52.168;21.296;2022-12-07T07:08:46;1.30;99.90
55064;DHT22;40963;52.168;21.296;2022-12-07T07:11:11;1.30;99.90
55064;DHT22;40963;52.168;21.296;2022-12-07T07:13:37;1.30;99.90
55064;DHT22;40963;52.168;21.296;2022-12-07T07:16:03;1.30;99.90
55064;DHT22;40963;52.168;21.296;2022-12-07T07:18:29;1.30;99.90
55064;DHT22;40963;52.168;21.296;2022-12-07T07:20:55;1.30;99.90
55064;DHT22;40963;52.168;21.296;2022-12-07T07:23:21;1.30;99.90
55064;DHT22;40963;52.168;21.296;2022-12-07T07:25:47;1.30;99.90
55064;DHT22;40963;52.168;21.296;2022-12-07T07:28:13;1.30;99.90
55064;DHT22;40963;52.168;21.296;2022-12-07T07:30:39;1.30;99.90
55064;DHT22;40963;52.168;21.296;2022-12-07T07:33:05;1.30;99.90
55064;DHT22;40963;52.168;21.296;2022-12-07T07:35:33;1.30;99.90
55064;DHT22;40963;52.168;21.296;2022-12-07T07:37:59;1.30;99.90
55064;DHT22;40963;52.168;21.296;2022-12-07T07:40:26;1.30;99.90
55064;DHT22;40963;52.168;21.296;2022-12-07T07:42:53;1.30;99.90
55064;DHT22;40963;52.168;21.296;2022-12-07T07:45:20;1.20;99.90
55064;DHT22;40963;52.168;21.296;2022-12-07T07:47:46;1.30;99.90
55064;DHT22;40963;52.168;21.296;2022-12-07T07:50:13;1.30;99.90
55064;DHT22;40963;52.168;21.296;2022-12-07T07:52:39;1.30;99.90
55064;DHT22;40963;52.168;21.296;2022-12-07T07:55:05;1.20;99.90
55064;DHT22;40963;52.168;21.296;2022-12-07T07:57:30;1.20;99.90
55064;DHT22;40963;52.168;21.296;2022-12-07T07:59:56;1.20;99.90
55064;DHT22;40963;52.168;21.296;2022-12-07T08:02:22;1.20;99.90
55064;DHT22;40963;52.168;21.296;2022-12-07T08:04:48;1.20;99.90
55064;DHT22;40963;52.168;21.296;2022-12-07T08:07:14;1.20;99.90
55064;DHT22;40963;52.168;21.296;2022-12-07T08:09:40;1.20;99.90
55064;DHT22;40963;52.168;21.296;2022-12-07T08:12:06;1.20;99.90
55064;DHT22;40963;52.168;21.296;2022-12-07T08:14:32;1.20;99.90
55064;DHT22;40963;52.168;21.296;2022-12-07T08:16:58;1.20;99.90
55064;DHT22;40963;52.168;21.296;2022-12-07T08:19:24;1.20;99.90
55064;DHT22;40963;52.168;21.296;2022-12-07T08:21:50;1.20;99.90
55064;DHT22;40963;52.168;21.296;2022-12-07T08:24:15;1.20;99.90
55064;DHT22;40963;52.168;21.296;2022-12-07T08:26:41;1.20;99.90
55064;DHT22;40963;52.168;21.296;2022-12-07T08:29:09;1.20;99.90
55064;DHT22;40963;52.168;21.296;2022-12-07T08:31:34;1.20;99.90
55064;DHT22;40963;52.168;21.296;2022-12-07T08:34:00;1.20;99.90
55064;DHT22;40963;52.168;21.296;2022-12-07T08:36:26;1.30;99.90
55064;DHT22;40963;52.168;21.296;2022-12-07T08:38:52;1.30;99.90
55064;DHT22;40963;52.168;21.296;2022-12-07T08:41:17;1.30;99.90
55064;DHT22;40963;52.168;21.296;2022-12-07T08:43:43;1.30;99.90
55064;DHT22;40963;52.168;21.296;2022-12-07T08:46:25;1.30;99.90
55064;DHT22;40963;52.168;21.296;2022-12-07T08:49:13;1.30;99.90
55064;DHT22;40963;52.168;21.296;2022-12-07T08:51:41;1.30;99.90
55064;DHT22;40963;52.168;21.296;2022-12-07T08:54:10;1.30;99.90
55064;DHT22;40963;52.168;21.296;2022-12-07T08:56:36;1.30;99.90
55064;DHT22;40963;52.168;21.296;2022-12-07T08:59:03;1.40;99.90
55064;DHT22;40963;52.168;21.296;2022-12-07T09:01:29;1.30;99.90
55064;DHT22;40963;52.168;21.296;2022-12-07T09:03:55;1.40;99.90
55064;DHT22;40963;52.168;21.296;2022-12-07T09:06:21;1.40;99.90
55064;DHT22;40963;52.168;21.296;2022-12-07T09:08:50;1.40;99.90
55064;DHT22;40963;52.168;21.296;2022-12-07T09:11:16;1.40;99.90
55064;DHT22;40963;52.168;21.296;2022-12-07T09:13:42;1.40;99.90
55064;DHT22;40963;52.168;21.296;2022-12-07T09:16:07;1.50;99.90
55064;DHT22;40963;52.168;21.296;2022-12-07T09:18:33;1.40;99.90
55064;DHT22;40963;52.168;21.296;2022-12-07T09:20:59;1.50;99.90
55064;DHT22;40963;52.168;21.296;2022-12-07T09:23:25;1.50;99.90
55064;DHT22;40963;52.168;21.296;2022-12-07T09:25:51;1.60;99.90
55064;DHT22;40963;52.168;21.296;2022-12-07T09:28:16;1.60;99.90
55064;DHT22;40963;52.168;21.296;2022-12-07T09:30:46;1.60;99.90
55064;DHT22;40963;52.168;21.296;2022-12-07T09:33:12;1.60;99.90
55064;DHT22;40963;52.168;21.296;2022-12-07T09:35:38;1.70;99.90
55064;DHT22;40963;52.168;21.296;2022-12-07T09:38:03;1.80;99.90
55064;DHT22;40963;52.168;21.296;2022-12-07T09:40:29;1.80;99.90
55064;DHT22;40963;52.168;21.296;2022-12-07T09:42:55;1.90;99.90
55064;DHT22;40963;52.168;21.296;2022-12-07T09:45:24;2.00;99.90
55064;DHT22;40963;52.168;21.296;2022-12-07T09:47:52;2.00;99.90
55064;DHT22;40963;52.168;21.296;2022-12-07T09:50:23;2.00;99.90
55064;DHT22;40963;52.168;21.296;2022-12-07T09:52:50;2.10;99.90
55064;DHT22;40963;52.168;21.296;2022-12-07T09:55:21;2.10;99.90
55064;DHT22;40963;52.168;21.296;2022-12-07T09:57:48;2.10;99.90
55064;DHT22;40963;52.168;21.296;2022-12-07T10:00:19;2.20;99.90
55064;DHT22;40963;52.168;21.296;2022-12-07T10:02:56;2.20;99.90
55064;DHT22;40963;52.168;21.296;2022-12-07T10:05:28;2.20;99.90
55064;DHT22;40963;52.168;21.296;2022-12-07T10:07:55;2.20;99.90
55064;DHT22;40963;52.168;21.296;2022-12-07T10:10:28;2.30;99.90
55064;DHT22;40963;52.168;21.296;2022-12-07T10:13:06;2.30;99.90
55064;DHT22;40963;52.168;21.296;2022-12-07T10:15:50;2.40;99.90
55064;DHT22;40963;52.168;21.296;2022-12-07T10:18:38;2.40;99.90
55064;DHT22;40963;52.168;21.296;2022-12-07T10:21:15;2.40;99.90
55064;DHT22;40963;52.168;21.296;2022-12-07T10:24:01;2.40;99.90
55064;DHT22;40963;52.168;21.296;2022-12-07T10:29:04;2.40;99.90
55064;DHT22;40963;52.168;21.296;2022-12-07T10:31:39;2.50;99.90
55064;DHT22;40963;52.168;21.296;2022-12-07T10:34:36;2.50;99.90
55064;DHT22;40963;52.168;21.296;2022-12-07T10:42:17;2.60;99.90
55064;DHT22;40963;52.168;21.296;2022-12-07T10:44:43;2.60;99.90
55064;DHT22;40963;52.168;21.296;2022-12-07T10:50:44;2.70;99.90
55064;DHT22;40963;52.168;21.296;2022-12-07T10:56:06;2.70;99.90
55064;DHT22;40963;52.168;21.296;2022-12-07T11:02:09;2.60;99.90
55064;DHT22;40963;52.168;21.296;2022-12-07T11:05:04;2.60;99.90
55064;DHT22;40963;52.168;21.296;2022-12-07T11:08:03;2.60;99.90
55064;DHT22;40963;52.168;21.296;2022-12-07T11:16:50;2.60;99.90
55064;DHT22;40963;52.168;21.296;2022-12-07T11:22:01;2.60;99.90
55064;DHT22;40963;52.168;21.296;2022-12-07T11:32:51;2.60;99.90
55064;DHT22;40963;52.168;21.296;2022-12-07T11:35:39;2.60;99.90
55064;DHT22;40963;52.168;21.296;2022-12-07T11:38:38;2.60;99.90
55064;DHT22;40963;52.168;21.296;2022-12-07T11:41:03;2.60;99.90
55064;DHT22;40963;52.168;21.296;2022-12-07T11:46:17;2.60;99.90
55064;DHT22;40963;52.168;21.296;2022-12-07T11:51:25;2.60;99.90
55064;DHT22;40963;52.168;21.296;2022-12-07T11:53:56;2.60;99.90
55064;DHT22;40963;52.168;21.296;2022-12-07T11:56:26;2.60;99.90
55064;DHT22;40963;52.168;21.296;2022-12-07T12:01:53;2.60;99.90
55064;DHT22;40963;52.168;21.296;2022-12-07T12:04:50;2.70;99.90
55064;DHT22;40963;52.168;21.296;2022-12-07T12:07:22;2.70;99.90
55064;DHT22;40963;52.168;21.296;2022-12-07T12:09:53;2.70;99.90
55064;DHT22;40963;52.168;21.296;2022-12-07T12:20:54;2.70;99.90
55064;DHT22;40963;52.168;21.296;2022-12-07T12:23:35;2.70;99.90
55064;DHT22;40963;52.168;21.296;2022-12-07T12:26:05;2.70;99.90
55064;DHT22;40963;52.168;21.296;2022-12-07T12:31:10;2.80;99.90
55064;DHT22;40963;52.168;21.296;2022-12-07T12:33:38;2.80;99.90
55064;DHT22;40963;52.168;21.296;2022-12-07T12:44:02;2.80;99.90
55064;DHT22;40963;52.168;21.296;2022-12-07T12:51:49;2.70;99.90
55064;DHT22;40963;52.168;21.296;2022-12-07T12:57:14;2.70;99.90
55064;DHT22;40963;52.168;21.296;2022-12-07T13:15:42;2.60;99.90
55064;DHT22;40963;52.168;21.296;2022-12-07T13:23:38;2.50;99.90
55064;DHT22;40963;52.168;21.296;2022-12-07T13:26:46;2.50;99.90
55064;DHT22;40963;52.168;21.296;2022-12-07T13:29:17;2.50;99.90
55064;DHT22;40963;52.168;21.296;2022-12-07T13:31:52;2.50;99.90
55064;DHT22;40963;52.168;21.296;2022-12-07T13:36:53;2.50;99.90
55064;DHT22;40963;52.168;21.296;2022-12-07T13:39:24;2.50;99.90
55064;DHT22;40963;52.168;21.296;2022-12-07T13:41:56;2.50;99.90
55064;DHT22;40963;52.168;21.296;2022-12-07T13:44:23;2.50;99.90
55064;DHT22;40963;52.168;21.296;2022-12-07T13:46:54;2.50;99.90
55064;DHT22;40963;52.168;21.296;2022-12-07T13:49:28;2.50;99.90
55064;DHT22;40963;52.168;21.296;2022-12-07T13:51:55;2.50;99.90
55064;DHT22;40963;52.168;21.296;2022-12-07T13:54:32;2.50;99.90
55064;DHT22;40963;52.168;21.296;2022-12-07T13:56:58;2.50;99.90
55064;DHT22;40963;52.168;21.296;2022-12-07T13:59:25;2.50;99.90
55064;DHT22;40963;52.168;21.296;2022-12-07T14:01:52;2.50;99.90
55064;DHT22;40963;52.168;21.296;2022-12-07T14:06:50;2.50;99.90
55064;DHT22;40963;52.168;21.296;2022-12-07T14:09:24;2.50;99.90
55064;DHT22;40963;52.168;21.296;2022-12-07T14:11:53;2.50;99.90
55064;DHT22;40963;52.168;21.296;2022-12-07T14:14:26;2.50;99.90
55064;DHT22;40963;52.168;21.296;2022-12-07T14:17:14;2.50;99.90
55064;DHT22;40963;52.168;21.296;2022-12-07T14:19:42;2.50;99.90
55064;DHT22;40963;52.168;21.296;2022-12-07T14:22:17;2.50;99.90
55064;DHT22;40963;52.168;21.296;2022-12-07T14:24:44;2.50;99.90
55064;DHT22;40963;52.168;21.296;2022-12-07T14:27:23;2.50;99.90
55064;DHT22;40963;52.168;21.296;2022-12-07T14:29:56;2.50;99.90
55064;DHT22;40963;52.168;21.296;2022-12-07T14:32:27;2.50;99.90
55064;DHT22;40963;52.168;21.296;2022-12-07T14:35:13;2.40;99.90
55064;DHT22;40963;52.168;21.296;2022-12-07T14:37:41;2.40;99.90
55064;DHT22;40963;52.168;21.296;2022-12-07T14:40:09;2.40;99.90
55064;DHT22;40963;52.168;21.296;2022-12-07T14:42:37;2.40;99.90
55064;DHT22;40963;52.168;21.296;2022-12-07T14:45:03;2.40;99.90
55064;DHT22;40963;52.168;21.296;2022-12-07T14:47:29;2.40;99.90
55064;DHT22;40963;52.168;21.296;2022-12-07T14:49:55;2.30;99.90
55064;DHT22;40963;52.168;21.296;2022-12-07T14:52:25;2.30;99.90
55064;DHT22;40963;52.168;21.296;2022-12-07T14:54:52;2.30;99.90
55064;DHT22;40963;52.168;21.296;2022-12-07T14:57:18;2.30;99.90
55064;DHT22;40963;52.168;21.296;2022-12-07T14:59:44;2.30;99.90
55064;DHT22;40963;52.168;21.296;2022-12-07T15:02:12;2.20;99.90
55064;DHT22;40963;52.168;21.296;2022-12-07T15:04:38;2.20;99.90
55064;DHT22;40963;52.168;21.296;2022-12-07T15:07:05;2.20;99.90
55064;DHT22;40963;52.168;21.296;2022-12-07T15:09:31;2.20;99.90
55064;DHT22;40963;52.168;21.296;2022-12-07T15:11:57;2.10;99.90
55064;DHT22;40963;52.168;21.296;2022-12-07T15:14:23;2.10;99.90
55064;DHT22;40963;52.168;21.296;2022-12-07T15:16:48;2.10;99.90
55064;DHT22;40963;52.168;21.296;2022-12-07T15:19:22;2.00;99.90
55064;DHT22;40963;52.168;21.296;2022-12-07T15:21:49;2.00;99.90
55064;DHT22;40963;52.168;21.296;2022-12-07T15:24:15;2.00;99.90
55064;DHT22;40963;52.168;21.296;2022-12-07T15:26:41;1.90;99.90
55064;DHT22;40963;52.168;21.296;2022-12-07T15:29:07;1.90;99.90
55064;DHT22;40963;52.168;21.296;2022-12-07T15:31:34;1.90;99.90
55064;DHT22;40963;52.168;21.296;2022-12-07T15:34:00;1.90;99.90
55064;DHT22;40963;52.168;21.296;2022-12-07T15:36:27;1.80;99.90
55064;DHT22;40963;52.168;21.296;2022-12-07T15:38:53;1.80;99.90
55064;DHT22;40963;52.168;21.296;2022-12-07T15:41:20;1.80;99.90
55064;DHT22;40963;52.168;21.296;2022-12-07T15:43:45;1.80;99.90
55064;DHT22;40963;52.168;21.296;2022-12-07T15:46:34;1.80;99.90
55064;DHT22;40963;52.168;21.296;2022-12-07T15:49:03;1.80;99.90
55064;DHT22;40963;52.168;21.296;2022-12-07T15:51:30;1.80;99.90
55064;DHT22;40963;52.168;21.296;2022-12-07T15:53:57;1.80;99.90
55064;DHT22;40963;52.168;21.296;2022-12-07T15:56:23;1.80;99.90
55064;DHT22;40963;52.168;21.296;2022-12-07T15:58:49;1.80;99.90
55064;DHT22;40963;52.168;21.296;2022-12-07T16:01:17;1.70;99.90
55064;DHT22;40963;52.168;21.296;2022-12-07T16:03:44;1.80;99.90
55064;DHT22;40963;52.168;21.296;2022-12-07T16:06:11;1.80;99.90
55064;DHT22;40963;52.168;21.296;2022-12-07T16:08:37;1.70;99.90
55064;DHT22;40963;52.168;21.296;2022-12-07T16:11:07;1.80;99.90
55064;DHT22;40963;52.168;21.296;2022-12-07T16:13:33;1.80;99.90
55064;DHT22;40963;52.168;21.296;2022-12-07T16:16:03;1.80;99.90
55064;DHT22;40963;52.168;21.296;2022-12-07T16:18:29;1.80;99.90
55064;DHT22;40963;52.168;21.296;2022-12-07T16:20:55;1.70;99.90
55064;DHT22;40963;52.168;21.296;2022-12-07T16:23:21;1.70;99.90
55064;DHT22;40963;52.168;21.296;2022-12-07T16:25:46;1.70;99.90
55064;DHT22;40963;52.168;21.296;2022-12-07T16:28:12;1.80;99.90
55064;DHT22;40963;52.168;21.296;2022-12-07T16:30:38;1.70;99.90
55064;DHT22;40963;52.168;21.296;2022-12-07T16:33:03;1.80;99.90
55064;DHT22;40963;52.168;21.296;2022-12-07T16:35:29;1.70;99.90
55064;DHT22;40963;52.168;21.296;2022-12-07T16:37:55;1.80;99.90
55064;DHT22;40963;52.168;21.296;2022-12-07T16:40:20;1.80;99.90
55064;DHT22;40963;52.168;21.296;2022-12-07T16:42:46;1.80;99.90
55064;DHT22;40963;52.168;21.296;2022-12-07T16:45:12;1.80;99.90
55064;DHT22;40963;52.168;21.296;2022-12-07T16:47:39;1.80;99.90
55064;DHT22;40963;52.168;21.296;2022-12-07T16:50:05;1.80;99.90
55064;DHT22;40963;52.168;21.296;2022-12-07T16:52:31;1.80;99.90
55064;DHT22;40963;52.168;21.296;2022-12-07T16:54:56;1.80;99.90
55064;DHT22;40963;52.168;21.296;2022-12-07T16:57:22;1.80;99.90
55064;DHT22;40963;52.168;21.296;2022-12-07T16:59:48;1.80;99.90
55064;DHT22;40963;52.168;21.296;2022-12-07T17:02:13;1.80;99.90
55064;DHT22;40963;52.168;21.296;2022-12-07T17:04:39;1.80;99.90
55064;DHT22;40963;52.168;21.296;2022-12-07T17:07:08;1.80;99.90
55064;DHT22;40963;52.168;21.296;2022-12-07T17:09:34;1.70;99.90
55064;DHT22;40963;52.168;21.296;2022-12-07T17:12:00;1.70;99.90
55064;DHT22;40963;52.168;21.296;2022-12-07T17:14:26;1.70;99.90
55064;DHT22;40963;52.168;21.296;2022-12-07T17:17:10;1.60;99.90
55064;DHT22;40963;52.168;21.296;2022-12-07T17:19:36;1.60;99.90
55064;DHT22;40963;52.168;21.296;2022-12-07T17:22:02;1.60;99.90
55064;DHT22;40963;52.168;21.296;2022-12-07T17:24:27;1.60;99.90
55064;DHT22;40963;52.168;21.296;2022-12-07T17:26:53;1.60;99.90
55064;DHT22;40963;52.168;21.296;2022-12-07T17:29:19;1.70;99.90
55064;DHT22;40963;52.168;21.296;2022-12-07T17:31:46;1.70;99.90
55064;DHT22;40963;52.168;21.296;2022-12-07T17:34:12;1.70;99.90
55064;DHT22;40963;52.168;21.296;2022-12-07T17:36:39;1.70;99.90